Fairbanks International Airport Fairbanks US
ICAO: PAFA
IATA: FAI
Category: Large
Scheduled Services:

Elevation: 439 ft
TransAlt. 18000 ft.

Airport Communications:
APP:118.6
ASOS:119.025
ATIS:124.4
TWEB:108.2
CLNC DEL:127.6
DEP:32.71
RDO:122.6
GND:121.9
EIELSON RANGE CON:125.3
TWR:118.3
UNICOM:122.95

PAFA Zoom In..

If you have problems with the map follow the link
https://www.worldairports.se/pages/airport.php?
ICAO=PAFA

Runways:

(A) RW 02 length 2900 ft width 75 ft
---- / hdg 17

(B) RW 02L length 11800 ft width 150 ft
ILS 109.10 / hdg 17

(C) RW 02R length 6501 ft width 100 ft
---- / hdg 17

(D) RW 20 length 2900 ft width 75 ft
---- / hdg 197

(E) RW 20L length 6501 ft width 100 ft
---- / hdg 197

(F) RW 20R length 11800 ft width 150 ft
ILS 110.30 / hdg 197

Location; PAFA
Day. 22 / Time. 12.53 Zulu
* Altimeter: 29.54
* Temperature: -02° c. -28.4°f.
* Wind from: 000° Speed 00 kn.
Dewpoint: -03° c.
Visibility: 10 Statute Miles.
Clouds: Scattered 9000 ft.
Clouds: Broken 15000 ft.

PAFA 221253Z 00000KT 10SM SCT090 BKN150 M02/M03 A2954 RMK AO2 SLP009 T10221028 $


Wind - Calm.

 
 
jpsmedia.com for Web Design worldairports.se 2018   terms of use